Terminal Aerodrome Forecast
Issued by NWS

Home | Current Version | Previous Version | Text Only | Print | Product List | Glossary On
Versions: 1 2 3 4 5 6 7 8 9 10 11 12
000
FTUS43 KDMX 261131
TAFFOD
TAF
KFOD 261131Z 2612/2712 22005KT P6SM SCT250
     FM261600 25011KT P6SM SCT200
     FM262000 32013G19KT P6SM SCT050 BKN150
     FM270100 32009KT P6SM FEW200=

USA.gov is the U.S. government's official web portal to all federal, state and local government web resources and services.